createdAt,value
2019-03-31T00:01:51.352Z,99280.34
2019-03-31T00:05:05.553Z,99279.08
2019-03-31T00:08:19.878Z,99281.73
2019-03-31T00:11:34.311Z,99282.81
2019-03-31T00:14:48.312Z,99281.03
2019-03-31T00:18:02.545Z,99280.14
2019-03-31T00:21:16.665Z,99279.45
2019-03-31T00:24:31.041Z,99273.70
2019-03-31T00:27:45.080Z,99277.20
2019-03-31T00:30:59.311Z,99273.47
2019-03-31T00:34:13.424Z,99274.37
2019-03-31T00:37:27.430Z,99272.55
2019-03-31T00:40:41.579Z,99273.23
2019-03-31T00:43:55.621Z,99275.63
2019-03-31T00:47:09.723Z,99277.37
2019-03-31T00:50:23.716Z,99274.58
2019-03-31T00:53:37.999Z,99276.00
2019-03-31T00:56:52.130Z,99275.95
2019-03-31T01:00:08.349Z,99276.81
2019-03-31T01:03:23.269Z,99278.17
2019-03-31T01:06:38.337Z,99274.44
2019-03-31T01:09:55.531Z,99272.38
2019-03-31T01:13:09.947Z,99274.86
2019-03-31T01:16:25.595Z,99274.36
2019-03-31T01:19:40.178Z,99267.73
2019-03-31T01:22:54.448Z,99269.35
2019-03-31T01:26:08.624Z,99271.75
2019-03-31T01:29:23.128Z,99272.72
2019-03-31T01:32:37.446Z,99274.64
2019-03-31T01:35:51.424Z,99274.82
2019-03-31T01:39:07.256Z,99272.23
2019-03-31T01:42:21.560Z,99274.55
2019-03-31T01:45:35.557Z,99274.36
2019-03-31T01:48:49.759Z,99271.97
2019-03-31T01:52:04.078Z,99270.17
2019-03-31T01:55:18.415Z,99270.64
2019-03-31T01:58:33.248Z,99269.11
2019-03-31T02:01:47.339Z,99268.91
2019-03-31T02:05:01.440Z,99271.09
2019-03-31T02:08:15.451Z,99266.71
2019-03-31T02:11:29.431Z,99267.45
2019-03-31T02:14:43.511Z,99274.45
2019-03-31T02:17:57.707Z,99266.98
2019-03-31T02:21:11.683Z,99266.02
2019-03-31T02:24:25.702Z,99271.20
2019-03-31T02:27:39.958Z,99263.59
2019-03-31T02:30:54.377Z,99267.14
2019-03-31T02:34:08.370Z,99265.64
2019-03-31T02:37:22.344Z,99263.61
2019-03-31T02:40:36.749Z,99262.27
2019-03-31T02:43:51.381Z,99267.45
2019-03-31T02:47:05.377Z,99264.53
2019-03-31T02:50:48.636Z,99256.88
2019-03-31T02:54:02.952Z,99260.50
2019-03-31T02:57:20.491Z,99262.37
2019-03-31T03:00:36.197Z,99262.20
2019-03-31T03:07:18.589Z,99257.06
2019-03-31T03:10:34.184Z,99257.62
2019-03-31T03:13:49.126Z,99255.09
2019-03-31T03:17:03.338Z,99260.22
2019-03-31T03:20:17.344Z,99260.47
2019-03-31T03:23:31.357Z,99259.91
2019-03-31T03:26:45.350Z,99265.92
2019-03-31T03:29:59.696Z,99259.67
2019-03-31T03:33:17.318Z,99259.86
2019-03-31T03:36:30.101Z,99264.23
2019-03-31T03:39:44.087Z,99258.78
2019-03-31T03:42:58.105Z,99261.31
2019-03-31T03:46:12.188Z,99263.33
2019-03-31T03:49:26.305Z,99262.59
2019-03-31T03:52:40.317Z,99268.92
2019-03-31T03:55:54.330Z,99262.20
2019-03-31T03:59:08.610Z,99266.91
2019-03-31T04:02:22.638Z,99268.17
2019-03-31T04:05:36.652Z,99265.08
2019-03-31T04:08:50.688Z,99269.07
2019-03-31T04:12:04.752Z,99264.41
2019-03-31T04:15:18.755Z,99266.81
2019-03-31T04:18:33.430Z,99263.42
2019-03-31T04:21:47.703Z,99263.42
2019-03-31T04:25:01.690Z,99268.67
2019-03-31T04:28:15.695Z,99259.61
2019-03-31T04:31:30.040Z,99264.50
2019-03-31T04:34:44.072Z,99266.14
2019-03-31T04:37:58.062Z,99264.31
2019-03-31T04:41:12.608Z,99265.58
2019-03-31T04:44:26.617Z,99271.95
2019-03-31T04:47:40.638Z,99269.94
2019-03-31T04:50:54.899Z,99267.74
2019-03-31T04:54:09.215Z,99267.37
2019-03-31T04:57:23.193Z,99267.45
2019-03-31T05:00:37.489Z,99270.72
2019-03-31T05:04:03.836Z,99270.16
2019-03-31T05:07:07.723Z,99266.73
2019-03-31T05:10:21.707Z,99277.58
2019-03-31T05:13:35.839Z,99270.20
2019-03-31T05:16:49.888Z,99274.70
2019-03-31T05:20:04.464Z,99269.64
2019-03-31T05:23:18.475Z,99270.88
2019-03-31T05:26:32.494Z,99270.53
2019-03-31T05:29:46.505Z,99269.61
2019-03-31T05:33:00.486Z,99274.55
2019-03-31T05:36:14.500Z,99270.60
2019-03-31T05:39:28.779Z,99272.77
2019-03-31T05:42:42.831Z,99284.32
2019-03-31T05:45:57.386Z,99279.78
2019-03-31T05:49:11.489Z,99274.86
2019-03-31T05:52:25.498Z,99281.05
2019-03-31T05:55:39.908Z,99286.64
2019-03-31T05:59:13.609Z,99279.70
2019-03-31T06:02:27.619Z,99279.93
2019-03-31T06:05:41.724Z,99276.13
2019-03-31T06:08:55.743Z,99281.75
2019-03-31T06:12:09.734Z,99280.30
2019-03-31T06:15:23.740Z,99277.17
2019-03-31T06:18:37.856Z,99277.88
2019-03-31T06:21:51.881Z,99268.78
2019-03-31T06:25:06.086Z,99281.27
2019-03-31T06:28:20.358Z,99281.37
2019-03-31T06:31:34.373Z,99286.50
2019-03-31T06:34:48.370Z,99282.58
2019-03-31T06:38:02.512Z,99283.91
2019-03-31T06:41:16.934Z,99272.87
2019-03-31T06:44:30.918Z,99279.08
2019-03-31T06:47:45.327Z,99275.43
2019-03-31T06:50:59.265Z,99264.88
2019-03-31T06:54:13.262Z,99269.02
2019-03-31T06:57:27.555Z,99275.86
2019-03-31T07:00:41.643Z,99276.33
2019-03-31T07:03:55.756Z,99272.20
2019-03-31T07:07:09.761Z,99270.61
2019-03-31T07:10:24.144Z,99271.19
2019-03-31T07:13:38.942Z,99269.17
2019-03-31T07:16:53.536Z,99265.52
2019-03-31T07:20:09.625Z,99266.53
2019-03-31T07:23:23.729Z,99268.89
2019-03-31T07:26:38.156Z,99270.78
2019-03-31T07:29:52.573Z,99265.03
2019-03-31T07:33:06.817Z,99258.63
2019-03-31T07:36:21.083Z,99258.08
2019-03-31T07:39:35.247Z,99257.91
2019-03-31T07:42:51.118Z,99259.28
2019-03-31T07:46:05.534Z,99257.10
2019-03-31T07:49:19.885Z,99259.22
2019-03-31T07:52:34.372Z,99260.41
2019-03-31T07:55:48.457Z,99254.88
2019-03-31T07:59:02.434Z,99262.25
2019-03-31T08:02:16.808Z,99263.98
2019-03-31T08:05:33.372Z,99260.56
2019-03-31T08:08:47.415Z,99256.16
2019-03-31T08:12:01.556Z,99261.75
2019-03-31T08:15:15.869Z,99251.22
2019-03-31T08:18:30.220Z,99259.17
2019-03-31T08:21:44.169Z,99257.98
2019-03-31T08:24:58.590Z,99257.31
2019-03-31T08:28:12.714Z,99251.97
2019-03-31T08:31:27.028Z,99258.44
2019-03-31T08:34:41.465Z,99252.92
2019-03-31T08:37:55.464Z,99254.70
2019-03-31T08:41:09.950Z,99252.92
2019-03-31T08:44:24.249Z,99247.30
2019-03-31T08:47:38.822Z,99239.05
2019-03-31T08:50:52.854Z,99251.38
2019-03-31T08:54:07.273Z,99250.12
2019-03-31T08:57:21.767Z,99243.05
2019-03-31T09:00:45.903Z,99236.45
2019-03-31T09:04:00.259Z,99238.23
2019-03-31T09:07:14.283Z,99231.34
2019-03-31T09:10:28.681Z,99235.52
2019-03-31T09:13:42.987Z,99234.80
2019-03-31T09:16:57.170Z,99229.27
2019-03-31T09:20:13.290Z,99239.64
2019-03-31T09:23:27.960Z,99234.84
2019-03-31T09:26:44.972Z,99235.38
2019-03-31T09:29:59.970Z,99237.04
2019-03-31T09:33:16.840Z,99230.22
2019-03-31T09:36:32.265Z,99228.92
2019-03-31T09:39:47.507Z,99231.91
2019-03-31T09:43:03.605Z,99232.62
2019-03-31T09:46:20.700Z,99227.02
2019-03-31T09:49:40.467Z,99223.30
2019-03-31T09:52:54.705Z,99223.45
2019-03-31T09:56:08.785Z,99217.57
2019-03-31T09:59:23.386Z,99227.50
2019-03-31T10:02:38.253Z,99221.48
2019-03-31T10:05:52.268Z,99221.10
2019-03-31T10:09:06.660Z,99220.21
2019-03-31T10:12:20.731Z,99219.81
2019-03-31T10:15:34.888Z,99214.02
2019-03-31T10:18:49.214Z,99215.17
2019-03-31T10:22:03.242Z,99209.95
2019-03-31T10:25:17.383Z,99207.14
2019-03-31T10:28:31.853Z,99206.64
2019-03-31T10:31:46.162Z,99212.98
2019-03-31T10:35:01.514Z,99208.64
2019-03-31T10:38:16.069Z,99199.93
2019-03-31T10:41:31.047Z,99197.97
2019-03-31T10:44:46.285Z,99198.13
2019-03-31T10:48:00.595Z,99195.13
2019-03-31T10:51:15.127Z,99189.89
2019-03-31T10:54:29.547Z,99198.88
2019-03-31T10:57:43.783Z,99193.21
2019-03-31T11:00:58.444Z,99189.04
2019-03-31T11:04:12.993Z,99191.91
2019-03-31T11:07:27.348Z,99191.63
2019-03-31T11:10:42.009Z,99186.58
2019-03-31T11:13:56.542Z,99186.45
2019-03-31T11:17:11.116Z,99180.64
2019-03-31T11:20:25.696Z,99182.67
2019-03-31T11:23:39.726Z,99184.09
2019-03-31T11:26:54.176Z,99182.59
2019-03-31T11:30:08.737Z,99178.95
2019-03-31T11:33:22.764Z,99179.80
2019-03-31T11:36:36.856Z,99172.83
2019-03-31T11:39:50.871Z,99161.30
2019-03-31T11:43:05.300Z,99168.91
2019-03-31T11:46:19.568Z,99164.41
2019-03-31T11:49:33.681Z,99165.11
2019-03-31T11:52:48.099Z,99163.11
2019-03-31T11:56:02.099Z,99165.27
2019-03-31T11:59:16.130Z,99169.47
2019-03-31T12:02:30.297Z,99167.17
2019-03-31T12:05:44.313Z,99154.95
2019-03-31T12:08:58.359Z,99138.72
2019-03-31T12:12:12.459Z,99142.28
2019-03-31T12:15:27.137Z,99147.58
2019-03-31T12:18:41.477Z,99152.34
2019-03-31T12:21:55.609Z,99141.78
2019-03-31T12:25:09.665Z,99133.80
2019-03-31T12:28:24.115Z,99133.86
2019-03-31T12:31:38.200Z,99132.75
2019-03-31T12:34:52.434Z,99127.62
2019-03-31T12:38:06.533Z,99118.53
2019-03-31T12:41:20.763Z,99126.72
2019-03-31T12:44:35.067Z,99131.03
2019-03-31T12:47:49.068Z,99120.46
2019-03-31T12:51:03.279Z,99125.37
2019-03-31T12:54:17.420Z,99113.80
2019-03-31T12:57:31.558Z,99115.16
2019-03-31T13:00:46.051Z,99118.30
2019-03-31T13:04:00.140Z,99118.25
2019-03-31T13:07:15.103Z,99115.27
2019-03-31T13:10:29.289Z,99116.62
2019-03-31T13:13:43.412Z,99105.31
2019-03-31T13:16:57.432Z,99112.45
2019-03-31T13:20:12.262Z,99103.41
2019-03-31T13:23:26.799Z,99092.58
2019-03-31T13:26:40.903Z,99085.22
2019-03-31T13:29:55.037Z,99084.59
2019-03-31T13:33:09.059Z,99091.22
2019-03-31T13:36:23.082Z,99086.24
2019-03-31T13:39:37.099Z,99086.08
2019-03-31T13:42:51.388Z,99086.22
2019-03-31T13:46:05.409Z,99083.72
2019-03-31T13:49:20.008Z,99080.02
2019-03-31T13:52:34.585Z,99083.01
2019-03-31T13:55:49.747Z,99066.94
2019-03-31T13:59:04.059Z,99065.06
2019-03-31T14:02:18.587Z,99064.86
2019-03-31T14:05:32.788Z,99051.59
2019-03-31T14:08:46.910Z,99062.05
2019-03-31T14:12:00.974Z,99067.97
2019-03-31T14:15:19.427Z,99066.18
2019-03-31T14:18:31.199Z,99068.88
2019-03-31T14:21:45.900Z,99066.39
2019-03-31T14:25:00.539Z,99065.09
2019-03-31T14:28:15.204Z,99069.36
2019-03-31T14:31:29.276Z,99060.65
2019-03-31T14:34:43.887Z,99061.52
2019-03-31T14:37:58.353Z,99058.67
2019-03-31T14:41:12.784Z,99048.70
2019-03-31T14:44:26.799Z,99043.47
2019-03-31T14:47:41.167Z,99030.97
2019-03-31T14:50:55.500Z,99040.39
2019-03-31T14:54:09.618Z,99036.73
2019-03-31T14:57:24.092Z,99034.75
2019-03-31T15:00:38.268Z,99036.00
2019-03-31T15:03:52.954Z,99035.77
2019-03-31T15:07:07.091Z,99037.46
2019-03-31T15:10:21.278Z,99032.27
2019-03-31T15:13:35.578Z,99026.44
2019-03-31T15:16:49.829Z,99027.34
2019-03-31T15:20:04.802Z,99031.53
2019-03-31T15:23:28.965Z,99033.77
2019-03-31T15:26:40.974Z,99031.70
2019-03-31T15:29:55.710Z,99040.91
2019-03-31T15:33:35.210Z,99036.44
2019-03-31T15:36:49.742Z,99030.45
2019-03-31T15:40:05.041Z,99029.43
2019-03-31T15:43:19.058Z,99029.62
2019-03-31T15:46:33.430Z,99031.14
2019-03-31T15:49:47.744Z,99037.51
2019-03-31T15:53:01.994Z,99034.44
2019-03-31T15:56:16.084Z,99033.98
2019-03-31T15:59:30.126Z,99035.73
2019-03-31T16:02:44.312Z,99048.44
2019-03-31T16:05:58.775Z,99046.54
2019-03-31T16:09:22.842Z,99047.70
2019-03-31T16:12:27.663Z,99046.72
2019-03-31T16:15:41.176Z,99064.33
2019-03-31T16:18:54.694Z,99074.06
2019-03-31T16:22:08.517Z,99078.73
2019-03-31T16:25:26.514Z,99079.22
2019-03-31T16:28:39.983Z,99083.52
2019-03-31T16:31:53.553Z,99089.77
2019-03-31T16:35:07.174Z,99094.17
2019-03-31T16:38:21.062Z,99101.47
2019-03-31T16:41:34.906Z,99100.15
2019-03-31T16:44:58.190Z,99099.96
2019-03-31T16:48:04.733Z,99096.73
2019-03-31T16:51:18.495Z,99096.55
2019-03-31T16:54:31.976Z,99102.13
2019-03-31T16:57:45.801Z,99107.70
2019-03-31T17:00:59.361Z,99109.06
2019-03-31T17:04:12.825Z,99110.37
2019-03-31T17:07:26.975Z,99113.44
2019-03-31T17:10:40.764Z,99116.28
2019-03-31T17:13:54.341Z,99119.60
2019-03-31T17:17:07.832Z,99122.66
2019-03-31T17:20:21.872Z,99124.06
2019-03-31T17:23:35.330Z,99124.66
2019-03-31T17:26:49.076Z,99128.65
2019-03-31T17:30:04.212Z,99131.03
2019-03-31T17:33:17.996Z,99130.95
2019-03-31T17:36:31.472Z,99132.87
2019-03-31T17:39:44.936Z,99129.03
2019-03-31T17:42:58.405Z,99143.17
2019-03-31T17:46:11.875Z,99136.20
2019-03-31T17:49:25.694Z,99144.67
2019-03-31T17:52:39.152Z,99147.87
2019-03-31T17:55:52.737Z,99153.93
2019-03-31T17:59:08.987Z,99151.11
2019-03-31T18:02:23.088Z,99157.05
2019-03-31T18:05:36.572Z,99159.15
2019-03-31T18:08:50.037Z,99159.52
2019-03-31T18:12:03.621Z,99163.98
2019-03-31T18:15:17.084Z,99167.33
2019-03-31T18:18:30.905Z,99167.59
2019-03-31T18:21:44.637Z,99170.56
2019-03-31T18:24:58.135Z,99169.64
2019-03-31T18:28:12.025Z,99183.61
2019-03-31T18:31:25.537Z,99187.73
2019-03-31T18:34:38.969Z,99196.72
2019-03-31T18:37:52.792Z,99198.61
2019-03-31T18:41:06.419Z,99199.01
2019-03-31T18:44:19.976Z,99204.91
2019-03-31T18:47:33.798Z,99210.69
2019-03-31T18:50:47.449Z,99216.98
2019-03-31T18:54:16.458Z,99218.89
2019-03-31T18:58:04.998Z,99227.38
2019-03-31T19:01:29.518Z,99227.42
2019-03-31T19:05:11.834Z,99236.49
2019-03-31T19:08:49.465Z,99235.64
2019-03-31T19:12:29.459Z,99242.08
2019-03-31T19:15:53.821Z,99241.52
2019-03-31T19:19:18.028Z,99256.95
2019-03-31T19:22:38.544Z,99251.42
2019-03-31T19:26:18.052Z,99253.87
2019-03-31T19:29:44.565Z,99265.07
2019-03-31T19:33:04.995Z,99267.25
2019-03-31T19:36:38.679Z,99277.55
2019-03-31T19:40:12.242Z,99280.45
2019-03-31T19:43:32.787Z,99287.85
2019-03-31T19:46:55.878Z,99293.79
2019-03-31T19:50:22.362Z,99297.66
2019-03-31T19:53:54.280Z,99296.14
2019-03-31T19:57:30.759Z,99309.83
2019-03-31T20:01:06.793Z,99305.63
2019-03-31T20:04:30.090Z,99302.98
2019-03-31T20:08:15.880Z,99300.94
2019-03-31T20:11:51.687Z,99311.39
2019-03-31T20:15:33.410Z,99310.23
2019-03-31T20:18:55.490Z,99308.61
2019-03-31T20:22:37.904Z,99317.12
2019-03-31T20:26:12.739Z,99318.50
2019-03-31T20:29:37.245Z,99322.39
2019-03-31T20:33:12.653Z,99333.59
2019-03-31T20:36:50.200Z,99342.05
2019-03-31T20:40:17.074Z,99345.40
2019-03-31T20:44:02.574Z,99345.17
2019-03-31T20:47:16.343Z,99340.15
2019-03-31T20:50:29.787Z,99347.60
2019-03-31T20:53:43.360Z,99346.57
2019-03-31T20:56:56.977Z,99348.61
2019-03-31T21:00:10.925Z,99339.10
2019-03-31T21:03:24.383Z,99346.05
2019-03-31T21:06:37.852Z,99345.27
2019-03-31T21:09:51.572Z,99346.63
2019-03-31T21:13:05.049Z,99356.23
2019-03-31T21:16:18.512Z,99362.89
2019-03-31T21:19:31.968Z,99362.61
2019-03-31T21:22:45.445Z,99357.97
2019-03-31T21:25:58.920Z,99357.97
2019-03-31T21:29:12.391Z,99368.20
2019-03-31T21:32:25.864Z,99375.89
2019-03-31T21:35:39.559Z,99374.23
2019-03-31T21:38:53.323Z,99371.27
2019-03-31T21:42:07.022Z,99373.33
2019-03-31T21:45:20.795Z,99377.89
2019-03-31T21:48:34.258Z,99373.14
2019-03-31T21:51:47.706Z,99370.52
2019-03-31T21:55:01.449Z,99370.58
2019-03-31T21:58:14.917Z,99370.08
2019-03-31T22:01:29.902Z,99371.43
2019-03-31T22:04:43.596Z,99383.30
2019-03-31T22:07:57.307Z,99383.63
2019-03-31T22:11:11.029Z,99385.78
2019-03-31T22:14:24.839Z,99382.14
2019-03-31T22:17:38.458Z,99377.29
2019-03-31T22:20:52.300Z,99379.44
2019-03-31T22:24:06.143Z,99376.58
2019-03-31T22:27:19.599Z,99372.47
2019-03-31T22:30:35.258Z,99373.36
2019-03-31T22:33:48.723Z,99377.95
2019-03-31T22:37:02.172Z,99378.27
2019-03-31T22:40:15.662Z,99377.88
2019-03-31T22:43:29.128Z,99378.08
2019-03-31T22:46:53.675Z,99373.70
2019-03-31T22:49:57.930Z,99370.88
2019-03-31T22:53:11.691Z,99371.81
2019-03-31T22:56:25.146Z,99372.83
2019-03-31T22:59:38.867Z,99368.17
2019-03-31T23:02:52.469Z,99366.81
2019-03-31T23:06:05.914Z,99362.97
2019-03-31T23:09:19.371Z,99363.16
2019-03-31T23:12:32.840Z,99366.77
2019-03-31T23:15:46.531Z,99369.61
2019-03-31T23:18:59.989Z,99368.95
2019-03-31T23:22:13.474Z,99366.13
2019-03-31T23:25:26.942Z,99363.75
2019-03-31T23:28:46.282Z,99367.42
2019-03-31T23:31:59.736Z,99365.64
2019-03-31T23:35:13.361Z,99365.29
2019-03-31T23:38:26.787Z,99368.51
2019-03-31T23:41:40.505Z,99370.01
2019-03-31T23:44:54.260Z,99364.33
2019-03-31T23:48:07.735Z,99372.20
2019-03-31T23:51:21.198Z,99369.11
2019-03-31T23:54:34.679Z,99367.09
2019-03-31T23:57:48.144Z,99363.16
